sensor_id;sensor_type;location;lat;lon;timestamp;P1;durP1;ratioP1;P2;durP2;ratioP2
22768;SDS011;13001;51.968;5.918;2023-06-19T07:18:21;278.20;;;259.98;;
22768;SDS011;13001;51.968;5.918;2023-06-19T07:20:48;131.05;;;122.10;;
22768;SDS011;13001;51.968;5.918;2023-06-19T07:23:15;136.15;;;127.12;;
22768;SDS011;13001;51.968;5.918;2023-06-19T07:25:45;158.57;;;148.32;;
22768;SDS011;13001;51.968;5.918;2023-06-19T07:28:12;179.27;;;167.45;;
22768;SDS011;13001;51.968;5.918;2023-06-19T07:30:39;182.68;;;170.53;;
22768;SDS011;13001;51.968;5.918;2023-06-19T07:33:06;189.87;;;176.93;;
22768;SDS011;13001;51.968;5.918;2023-06-19T07:35:34;264.68;;;245.40;;
22768;SDS011;13001;51.968;5.918;2023-06-19T07:38:01;159.43;;;149.10;;
22768;SDS011;13001;51.968;5.918;2023-06-19T07:40:28;271.90;;;254.70;;
22768;SDS011;13001;51.968;5.918;2023-06-19T07:42:56;186.35;;;174.85;;
22768;SDS011;13001;51.968;5.918;2023-06-19T07:45:23;121.50;;;113.70;;
22768;SDS011;13001;51.968;5.918;2023-06-19T07:47:54;71.00;;;67.00;;
22768;SDS011;13001;51.968;5.918;2023-06-19T07:50:22;74.58;;;70.22;;
22768;SDS011;13001;51.968;5.918;2023-06-19T07:52:49;89.05;;;83.78;;
22768;SDS011;13001;51.968;5.918;2023-06-19T07:55:16;75.45;;;71.10;;
22768;SDS011;13001;51.968;5.918;2023-06-19T08:14:52;145.68;;;137.03;;
22768;SDS011;13001;51.968;5.918;2023-06-19T08:17:19;145.40;;;136.77;;
22768;SDS011;13001;51.968;5.918;2023-06-19T08:19:47;169.50;;;159.27;;
22768;SDS011;13001;51.968;5.918;2023-06-19T08:22:14;81.10;;;76.00;;
22768;SDS011;13001;51.968;5.918;2023-06-19T08:24:41;65.55;;;61.40;;
22768;SDS011;13001;51.968;5.918;2023-06-19T08:27:09;70.70;;;66.22;;
22768;SDS011;13001;51.968;5.918;2023-06-19T08:29:36;69.03;;;65.03;;
22768;SDS011;13001;51.968;5.918;2023-06-19T08:32:03;73.25;;;68.50;;
22768;SDS011;13001;51.968;5.918;2023-06-19T08:34:31;77.67;;;72.92;;
22768;SDS011;13001;51.968;5.918;2023-06-19T08:36:58;79.85;;;75.20;;
22768;SDS011;13001;51.968;5.918;2023-06-19T08:39:26;79.20;;;74.45;;
22768;SDS011;13001;51.968;5.918;2023-06-19T08:41:53;78.33;;;73.60;;
22768;SDS011;13001;51.968;5.918;2023-06-19T08:44:20;82.60;;;77.95;;
22768;SDS011;13001;51.968;5.918;2023-06-19T08:46:47;90.77;;;85.25;;
22768;SDS011;13001;51.968;5.918;2023-06-19T08:49:15;82.75;;;78.10;;
22768;SDS011;13001;51.968;5.918;2023-06-19T08:51:42;84.55;;;79.17;;
22768;SDS011;13001;51.968;5.918;2023-06-19T08:54:09;83.92;;;79.00;;
22768;SDS011;13001;51.968;5.918;2023-06-19T08:56:36;78.92;;;74.32;;
22768;SDS011;13001;51.968;5.918;2023-06-19T08:59:11;72.65;;;68.12;;
22768;SDS011;13001;51.968;5.918;2023-06-19T09:01:36;63.90;;;60.03;;
22768;SDS011;13001;51.968;5.918;2023-06-19T09:04:12;57.10;;;53.40;;
22768;SDS011;13001;51.968;5.918;2023-06-19T09:06:36;53.50;;;50.35;;
22768;SDS011;13001;51.968;5.918;2023-06-19T09:09:04;30.25;;;28.35;;
22768;SDS011;13001;51.968;5.918;2023-06-19T09:11:33;30.65;;;28.67;;
22768;SDS011;13001;51.968;5.918;2023-06-19T09:14:00;28.85;;;27.05;;
22768;SDS011;13001;51.968;5.918;2023-06-19T09:16:38;30.17;;;28.05;;
22768;SDS011;13001;51.968;5.918;2023-06-19T09:19:05;31.90;;;29.87;;
22768;SDS011;13001;51.968;5.918;2023-06-19T09:21:35;36.50;;;33.98;;
22768;SDS011;13001;51.968;5.918;2023-06-19T09:24:02;35.15;;;32.83;;
22768;SDS011;13001;51.968;5.918;2023-06-19T09:26:29;43.40;;;40.80;;
22768;SDS011;13001;51.968;5.918;2023-06-19T09:28:57;54.10;;;50.58;;
22768;SDS011;13001;51.968;5.918;2023-06-19T09:31:33;56.58;;;52.88;;
22768;SDS011;13001;51.968;5.918;2023-06-19T09:34:00;53.10;;;49.55;;
22768;SDS011;13001;51.968;5.918;2023-06-19T09:36:28;42.90;;;40.28;;
22768;SDS011;13001;51.968;5.918;2023-06-19T09:38:56;32.28;;;30.08;;
22768;SDS011;13001;51.968;5.918;2023-06-19T09:41:24;33.88;;;31.60;;
22768;SDS011;13001;51.968;5.918;2023-06-19T10:42:36;33.33;;;30.97;;
22768;SDS011;13001;51.968;5.918;2023-06-19T10:45:04;41.33;;;38.63;;
22768;SDS011;13001;51.968;5.918;2023-06-19T10:47:32;44.00;;;40.92;;
22768;SDS011;13001;51.968;5.918;2023-06-19T10:50:00;55.75;;;52.10;;
22768;SDS011;13001;51.968;5.918;2023-06-19T10:52:30;64.35;;;60.43;;
22768;SDS011;13001;51.968;5.918;2023-06-19T10:54:57;65.32;;;61.30;;
22768;SDS011;13001;51.968;5.918;2023-06-19T10:57:30;61.28;;;57.30;;
22768;SDS011;13001;51.968;5.918;2023-06-19T10:59:57;66.33;;;62.27;;
22768;SDS011;13001;51.968;5.918;2023-06-19T11:02:25;83.00;;;77.97;;
22768;SDS011;13001;51.968;5.918;2023-06-19T11:04:53;96.17;;;90.42;;
22768;SDS011;13001;51.968;5.918;2023-06-19T11:07:21;100.72;;;94.52;;
22768;SDS011;13001;51.968;5.918;2023-06-19T11:09:49;97.30;;;90.92;;
22768;SDS011;13001;51.968;5.918;2023-06-19T11:12:20;94.15;;;87.97;;
22768;SDS011;13001;51.968;5.918;2023-06-19T11:14:48;80.38;;;75.55;;
22768;SDS011;13001;51.968;5.918;2023-06-19T11:17:15;78.97;;;74.17;;
22768;SDS011;13001;51.968;5.918;2023-06-19T11:19:46;77.42;;;72.60;;
22768;SDS011;13001;51.968;5.918;2023-06-19T11:22:13;66.30;;;62.15;;
22768;SDS011;13001;51.968;5.918;2023-06-19T11:24:48;67.58;;;63.25;;
22768;SDS011;13001;51.968;5.918;2023-06-19T11:27:19;75.08;;;70.40;;
22768;SDS011;13001;51.968;5.918;2023-06-19T11:29:54;83.10;;;78.07;;
22768;SDS011;13001;51.968;5.918;2023-06-19T11:32:17;118.05;;;111.03;;
22768;SDS011;13001;51.968;5.918;2023-06-19T11:34:46;136.68;;;128.85;;
22768;SDS011;13001;51.968;5.918;2023-06-19T11:37:14;140.37;;;131.43;;
22768;SDS011;13001;51.968;5.918;2023-06-19T11:39:45;146.02;;;137.45;;
22768;SDS011;13001;51.968;5.918;2023-06-19T11:42:13;145.92;;;137.52;;
22768;SDS011;13001;51.968;5.918;2023-06-19T11:44:56;139.07;;;130.50;;
22768;SDS011;13001;51.968;5.918;2023-06-19T11:47:24;144.82;;;136.35;;
22768;SDS011;13001;51.968;5.918;2023-06-19T11:49:51;132.60;;;124.67;;
22768;SDS011;13001;51.968;5.918;2023-06-19T11:52:19;122.65;;;114.92;;
22768;SDS011;13001;51.968;5.918;2023-06-19T11:54:46;114.45;;;107.32;;
22768;SDS011;13001;51.968;5.918;2023-06-19T11:57:14;114.10;;;107.35;;
22768;SDS011;13001;51.968;5.918;2023-06-19T11:59:41;108.17;;;101.87;;
22768;SDS011;13001;51.968;5.918;2023-06-19T12:02:09;98.97;;;93.05;;
22768;SDS011;13001;51.968;5.918;2023-06-19T12:04:36;113.40;;;106.63;;
22768;SDS011;13001;51.968;5.918;2023-06-19T12:07:03;109.52;;;101.82;;
22768;SDS011;13001;51.968;5.918;2023-06-19T12:09:31;104.47;;;98.12;;
22768;SDS011;13001;51.968;5.918;2023-06-19T12:11:58;113.83;;;106.17;;
22768;SDS011;13001;51.968;5.918;2023-06-19T12:14:26;121.70;;;114.57;;
22768;SDS011;13001;51.968;5.918;2023-06-19T12:16:54;140.90;;;132.63;;
22768;SDS011;13001;51.968;5.918;2023-06-19T12:19:21;152.30;;;142.95;;
22768;SDS011;13001;51.968;5.918;2023-06-19T12:21:48;131.75;;;123.97;;
22768;SDS011;13001;51.968;5.918;2023-06-19T12:24:15;143.22;;;134.85;;
22768;SDS011;13001;51.968;5.918;2023-06-19T12:26:43;133.22;;;125.60;;
22768;SDS011;13001;51.968;5.918;2023-06-19T12:29:10;120.08;;;113.10;;
22768;SDS011;13001;51.968;5.918;2023-06-19T12:31:37;115.77;;;109.05;;
22768;SDS011;13001;51.968;5.918;2023-06-19T12:34:05;123.75;;;116.60;;
22768;SDS011;13001;51.968;5.918;2023-06-19T12:36:32;131.30;;;123.65;;
22768;SDS011;13001;51.968;5.918;2023-06-19T12:38:59;135.82;;;127.65;;
22768;SDS011;13001;51.968;5.918;2023-06-19T12:41:28;137.85;;;129.80;;
